In Rescue
 
Open Full Screen Window  High Contrast Mode
Wind Gusting 15 knots
10
October 25, 2021 3:53 PM EDT
Weather Information
Wind Direction
  030 °
Wind Speed
  10 kt (12 mph)
Wind Gust
  15 kt (17 mph)
Altimeter
30.10 in
Visibility
10 SM
Temperature
07° C
45° F
Dewpoint
02° C
36° F
Humidity
71%
1hr Rain Fall
00.00 in.
24hr Rain Fall
00.00 in.
Sky Condition
Overcast @ 2,700 ft
MVFR

METAR KERY 251953Z AUTO 03010G15KT 10SM OVC027 07/02 A3010 RMK AO2 T00710020

FAA Disclaimer: The data displayed is for advisory purposes only and is not to be used for flight planning or operations.